Time;durP1;ratioP1;P1;durP2;ratioP2;P2;SDS_P1;SDS_P2;PMS_P1;PMS_P2;Temp;Humidity;BMP_temperature;BMP_pressure;BME280_temperature;BME280_humidity;BME280_pressure;Samples;Min_cycle;Max_cycle;Signal;HPM_P1;HPM_P2
2023/09/21 00:00:13;;;;;;;0.10;0.10;;;;;;;16.86;100.00;99839.81;5115415;28;20024;-44
2023/09/21 00:02:49;;;;;;;0.10;0.10;;;;;;;16.85;100.00;99840.69;5114888;28;20027;-43
2023/09/21 00:05:19;;;;;;;0.00;0.00;;;;;;;16.78;100.00;99838.19;5115306;28;20031;-42
2023/09/21 00:07:45;;;;;;;0.10;0.10;;;;;;;16.79;100.00;99826.88;5115414;28;20020;-43
2023/09/21 00:10:10;;;;;;;0.10;0.10;;;;;;;16.78;100.00;99832.09;5114963;28;20024;-46
2023/09/21 00:12:35;;;;;;;0.10;0.10;;;;;;;16.79;100.00;99834.66;5115021;28;20352;-43
2023/09/21 00:15:06;;;;;;;0.10;0.10;;;;;;;16.82;100.00;99819.91;5115438;28;20024;-44
2023/09/21 00:17:35;;;;;;;0.10;0.10;;;;;;;16.77;100.00;99818.22;5114238;28;20612;-44
2023/09/21 00:20:13;;;;;;;0.10;0.10;;;;;;;16.74;100.00;99828.66;5115165;28;20023;-45
2023/09/21 00:22:38;;;;;;;0.00;0.00;;;;;;;16.72;100.00;99819.16;5115450;28;20024;-44
2023/09/21 00:25:07;;;;;;;0.08;0.08;;;;;;;16.68;100.00;99810.53;5114565;28;20028;-45
2023/09/21 00:27:33;;;;;;;0.10;0.10;;;;;;;16.72;100.00;99813.94;5114902;28;20027;-43
2023/09/21 00:29:58;;;;;;;0.00;0.00;;;;;;;16.73;100.00;99806.16;5115269;28;20031;-45
2023/09/21 00:32:25;;;;;;;0.10;0.10;;;;;;;16.71;100.00;99809.66;5113695;28;20117;-46
2023/09/21 00:34:52;;;;;;;0.10;0.10;;;;;;;16.75;100.00;99799.16;5114904;28;20467;-43
2023/09/21 00:37:17;;;;;;;0.10;0.10;;;;;;;16.75;100.00;99796.56;5114687;28;20031;-47
2023/09/21 00:39:42;;;;;;;0.08;0.08;;;;;;;16.73;100.00;99800.94;5114103;28;20281;-45
2023/09/21 00:42:08;;;;;;;0.05;0.05;;;;;;;16.72;100.00;99794.00;5114849;28;20421;-44
2023/09/21 00:44:33;;;;;;;0.10;0.10;;;;;;;16.76;100.00;99784.44;5114449;28;20429;-47
2023/09/21 00:47:00;;;;;;;0.10;0.10;;;;;;;16.83;100.00;99783.44;5114048;28;20019;-46
2023/09/21 00:49:26;;;;;;;;;;;;;;;16.87;100.00;99781.69;5114828;28;20394;-45
2023/09/21 00:51:54;;;;;;;0.00;0.00;;;;;;;16.89;100.00;99780.78;5113949;28;20406;-46
2023/09/21 00:54:20;;;;;;;0.00;0.00;;;;;;;16.89;100.00;99769.53;5114430;28;20036;-43
2023/09/21 00:56:47;;;;;;;0.10;0.10;;;;;;;16.91;100.00;99768.66;5114212;28;20036;-47
2023/09/21 00:59:14;;;;;;;0.10;0.10;;;;;;;16.94;99.52;99765.16;5113219;28;20451;-44
2023/09/21 01:01:39;;;;;;;0.10;0.10;;;;;;;16.94;99.58;99752.13;5114446;28;20106;-47
2023/09/21 01:04:06;;;;;;;0.00;0.00;;;;;;;16.91;99.62;99752.16;5114280;28;20054;-47
2023/09/21 01:06:32;;;;;;;0.10;0.10;;;;;;;16.99;98.65;99749.44;5113174;28;20870;-45
2023/09/21 01:08:57;;;;;;;0.10;0.10;;;;;;;16.99;98.90;99752.94;5114372;28;20023;-43
2023/09/21 01:11:23;;;;;;;0.10;0.10;;;;;;;17.06;96.87;99749.31;5113845;28;20056;-42
2023/09/21 01:13:48;;;;;;;0.10;0.10;;;;;;;17.04;97.92;99739.81;5113476;28;20033;-47
2023/09/21 01:16:15;;;;;;;0.00;0.00;;;;;;;17.03;97.39;99741.59;5113859;28;20360;-44
2023/09/21 01:18:41;;;;;;;0.10;0.10;;;;;;;17.04;97.22;99738.09;5114079;28;20059;-44
2023/09/21 01:21:09;;;;;;;0.10;0.10;;;;;;;17.04;96.84;99737.22;5113450;28;20023;-46
2023/09/21 01:23:43;;;;;;;0.10;0.10;;;;;;;17.04;97.44;99735.50;5113854;28;20019;-42
2023/09/21 01:26:10;;;;;;;0.10;0.10;;;;;;;17.01;97.39;99732.91;5114007;28;20073;-44
2023/09/21 01:28:37;;;;;;;0.03;0.03;;;;;;;17.01;97.17;99727.72;5113125;28;20413;-46
2023/09/21 01:31:02;;;;;;;0.10;0.10;;;;;;;17.04;96.69;99719.88;5113793;28;20356;-44
2023/09/21 01:33:28;;;;;;;0.10;0.10;;;;;;;17.02;97.03;99718.19;5113423;28;20106;-45
2023/09/21 01:35:53;;;;;;;0.10;0.10;;;;;;;17.02;97.23;99710.38;5113191;28;20023;-43
2023/09/21 01:38:19;;;;;;;0.10;0.10;;;;;;;16.99;97.36;99713.00;5113412;28;20038;-43
2023/09/21 01:40:46;;;;;;;0.10;0.10;;;;;;;16.96;97.29;99713.91;5113641;28;20023;-44
2023/09/21 01:43:15;;;;;;;0.10;0.10;;;;;;;16.92;97.45;99709.63;5112479;28;20030;-46
2023/09/21 01:45:42;;;;;;;0.00;0.00;;;;;;;16.88;97.56;99710.53;5113566;28;20069;-45
2023/09/21 01:48:08;;;;;;;0.10;0.10;;;;;;;16.87;97.50;99698.41;5112974;28;20028;-45
2023/09/21 01:50:39;;;;;;;0.08;0.08;;;;;;;16.86;97.52;99699.28;5113390;28;20020;-44
2023/09/21 01:53:06;;;;;;;0.10;0.10;;;;;;;16.88;97.14;99700.97;5113658;28;20071;-44
2023/09/21 01:55:31;;;;;;;0.05;0.05;;;;;;;16.88;96.82;99692.31;5112205;28;20184;-44
2023/09/21 01:57:57;;;;;;;0.00;0.00;;;;;;;16.85;96.90;99695.84;5113317;28;20088;-47
2023/09/21 02:00:25;;;;;;;0.10;0.10;;;;;;;16.83;97.23;99700.19;5112985;28;20019;-43
2023/09/21 02:02:52;;;;;;;0.10;0.10;;;;;;;16.78;98.04;99697.66;5112821;28;20051;-45
2023/09/21 02:05:17;;;;;;;0.00;0.00;;;;;;;16.73;97.81;99683.88;5113310;28;20052;-45
2023/09/21 02:07:43;;;;;;;0.10;0.10;;;;;;;16.77;97.07;99688.13;5113644;28;20512;-45
2023/09/21 02:10:12;;;;;;;0.10;0.10;;;;;;;16.73;97.24;99681.25;5112642;28;20441;-44
2023/09/21 02:12:39;;;;;;;0.10;0.10;;;;;;;16.70;97.96;99685.66;5113429;28;20019;-43
2023/09/21 02:15:12;;;;;;;0.10;0.10;;;;;;;16.69;98.13;99689.13;5113274;28;20019;-46
2023/09/21 02:17:39;;;;;;;0.10;0.10;;;;;;;16.69;97.69;99683.91;5112587;28;20028;-46
2023/09/21 02:20:12;;;;;;;0.10;0.10;;;;;;;16.70;97.96;99678.69;5113343;28;20027;-45
2023/09/21 02:22:38;;;;;;;0.10;0.10;;;;;;;16.64;98.30;99681.38;5113346;28;20011;-45
2023/09/21 02:25:05;;;;;;;0.10;0.10;;;;;;;16.74;97.00;99682.09;5112468;28;20092;-46
2023/09/21 02:27:34;;;;;;;0.10;0.10;;;;;;;16.76;96.67;99681.19;5112974;28;20030;-44
2023/09/21 02:30:00;;;;;;;0.10;0.10;;;;;;;16.74;96.78;99672.53;5113366;28;20028;-46
2023/09/21 02:32:25;;;;;;;0.00;0.00;;;;;;;16.74;96.79;99674.31;5112273;28;20571;-44
2023/09/21 02:34:52;;;;;;;0.10;0.10;;;;;;;16.73;96.80;99668.25;5113279;28;20418;-44
2023/09/21 02:37:18;;;;;;;0.10;0.10;;;;;;;16.70;97.62;99665.69;5112038;28;20036;-46
2023/09/21 02:39:43;;;;;;;0.05;0.05;;;;;;;16.72;96.78;99663.03;5113068;28;20070;-46
2023/09/21 02:42:09;;;;;;;0.10;0.10;;;;;;;16.67;97.38;99663.13;5112970;28;20061;-44
2023/09/21 02:44:34;;;;;;;0.10;0.10;;;;;;;16.68;96.99;99662.25;5112099;28;20104;-46
2023/09/21 02:47:00;;;;;;;0.00;0.00;;;;;;;16.68;97.72;99663.97;5112944;28;20508;-47
2023/09/21 02:49:25;;;;;;;0.10;0.10;;;;;;;16.75;96.44;99663.88;5112571;28;20038;-47
2023/09/21 02:51:52;;;;;;;0.00;0.00;;;;;;;16.77;96.20;99659.50;5112157;28;20024;-43
2023/09/21 02:54:17;;;;;;;0.03;0.03;;;;;;;16.82;96.13;99663.78;5112637;28;20108;-42
2023/09/21 02:56:43;;;;;;;0.10;0.10;;;;;;;16.86;95.40;99666.31;5115245;28;20126;-44
2023/09/21 02:59:09;;;;;;;0.10;0.10;;;;;;;16.96;94.54;99656.66;5116225;28;20367;-45
2023/09/21 03:01:35;;;;;;;0.10;0.10;;;;;;;16.96;94.79;99654.03;5116579;28;20069;-43
2023/09/21 03:04:03;;;;;;;0.10;0.10;;;;;;;16.95;94.98;99654.91;5116809;28;20024;-42
2023/09/21 03:06:32;;;;;;;0.10;0.10;;;;;;;17.00;94.44;99653.09;5115666;28;20020;-45
2023/09/21 03:08:57;;;;;;;0.10;0.10;;;;;;;17.00;94.75;99650.50;5116521;28;20058;-46
2023/09/21 03:11:23;;;;;;;0.10;0.10;;;;;;;16.98;94.99;99644.47;5116530;28;20070;-45
2023/09/21 03:13:48;;;;;;;0.10;0.10;;;;;;;16.98;94.01;99641.88;5115901;28;20098;-45
2023/09/21 03:16:16;;;;;;;0.10;0.10;;;;;;;17.02;94.46;99646.16;5116297;28;20500;-45
2023/09/21 03:18:42;;;;;;;0.10;0.10;;;;;;;16.98;94.84;99644.47;5116506;28;20051;-46
2023/09/21 03:21:09;;;;;;;0.00;0.00;;;;;;;16.97;95.05;99647.97;5115599;28;20493;-46
2023/09/21 03:23:35;;;;;;;0.10;0.10;;;;;;;16.98;95.06;99647.09;5116014;28;20099;-43
2023/09/21 03:26:00;;;;;;;0.00;0.00;;;;;;;16.96;95.09;99646.25;5116424;28;20111;-46
2023/09/21 03:28:25;;;;;;;0.10;0.10;;;;;;;16.92;95.20;99645.41;5115349;28;20062;-42
2023/09/21 03:30:53;;;;;;;0.10;0.10;;;;;;;16.85;96.93;99637.69;5116154;28;20023;-43
2023/09/21 03:33:20;;;;;;;0.00;0.00;;;;;;;16.71;97.90;99640.53;5115928;28;20024;-45
2023/09/21 03:35:46;;;;;;;0.10;0.10;;;;;;;16.60;98.35;99638.06;5115226;28;20420;-42
2023/09/21 03:38:12;;;;;;;0.03;0.03;;;;;;;16.47;99.45;99637.41;5115638;28;20772;-42
2023/09/21 03:40:38;;;;;;;0.10;0.10;;;;;;;16.36;100.00;99634.06;5115347;28;20028;-43
2023/09/21 03:43:06;;;;;;;0.10;0.10;;;;;;;16.25;100.00;99636.84;5116108;28;20034;-42
2023/09/21 03:45:32;;;;;;;0.10;0.10;;;;;;;16.16;100.00;99636.97;5115720;28;20034;-45
2023/09/21 03:47:59;;;;;;;0.10;0.10;;;;;;;16.07;100.00;99633.56;5115104;28;20103;-46
2023/09/21 03:50:27;;;;;;;0.10;0.10;;;;;;;16.03;100.00;99631.06;5115501;28;20084;-46
2023/09/21 03:52:53;;;;;;;0.10;0.10;;;;;;;16.00;100.00;99624.16;5115587;28;20028;-44
2023/09/21 03:55:19;;;;;;;0.05;0.05;;;;;;;15.94;100.00;99627.66;5114574;28;20073;-45
2023/09/21 03:57:49;;;;;;;0.10;0.10;;;;;;;15.94;100.00;99621.63;5115790;28;20073;-47
2023/09/21 04:00:36;;;;;;;0.10;0.10;;;;;;;15.94;100.00;99624.22;5115424;28;20020;-47
2023/09/21 04:03:10;;;;;;;0.10;0.10;;;;;;;15.95;100.00;99612.97;5114886;28;20030;-45
2023/09/21 04:05:37;;;;;;;0.10;0.10;;;;;;;15.98;100.00;99612.91;5115104;28;20172;-45
2023/09/21 04:08:04;;;;;;;0.10;0.10;;;;;;;16.01;100.00;99606.81;5115074;28;20463;-46
2023/09/21 04:10:30;;;;;;;0.10;0.10;;;;;;;16.07;100.00;99604.13;5114542;28;20027;-45
2023/09/21 04:12:56;;;;;;;0.10;0.10;;;;;;;16.10;100.00;99612.75;5115516;28;20022;-45
2023/09/21 04:15:23;;;;;;;0.10;0.10;;;;;;;16.16;100.00;99606.63;5115071;28;20019;-43
2023/09/21 04:17:49;;;;;;;0.10;0.10;;;;;;;16.24;100.00;99619.50;5114413;28;20051;-42
2023/09/21 04:20:16;;;;;;;0.10;0.10;;;;;;;16.34;100.00;99613.31;5114934;28;20483;-46
2023/09/21 04:22:43;;;;;;;0.10;0.10;;;;;;;16.37;100.00;99615.88;5115378;28;20015;-47
2023/09/21 04:25:10;;;;;;;0.10;0.10;;;;;;;16.43;100.00;99620.97;5114452;28;20022;-44
2023/09/21 04:27:41;;;;;;;0.10;0.10;;;;;;;16.52;100.00;99608.72;5114796;28;20020;-44
2023/09/21 04:30:08;;;;;;;0.10;0.10;;;;;;;16.64;100.00;99611.13;5114174;28;20428;-45
2023/09/21 04:32:38;;;;;;;0.10;0.10;;;;;;;16.79;100.00;99618.69;5114703;28;20020;-42
2023/09/21 04:35:05;;;;;;;0.10;0.10;;;;;;;16.87;100.00;99609.94;5114991;28;20439;-44
2023/09/21 04:37:34;;;;;;;0.10;0.10;;;;;;;16.95;99.82;99610.69;5113888;28;20071;-43
2023/09/21 04:40:04;;;;;;;0.10;0.10;;;;;;;17.03;99.67;99603.63;5114927;28;20024;-44
2023/09/21 04:42:29;;;;;;;0.10;0.10;;;;;;;17.09;99.26;99598.31;5114403;28;20479;-47
2023/09/21 04:44:55;;;;;;;0.00;0.00;;;;;;;17.21;98.04;99594.63;5113873;28;20035;-46
2023/09/21 04:47:21;;;;;;;0.10;0.10;;;;;;;17.31;97.20;99594.47;5114610;28;20036;-44
2023/09/21 04:49:48;;;;;;;0.05;0.05;;;;;;;17.38;96.47;99594.31;5114871;28;20022;-45
2023/09/21 04:52:13;;;;;;;0.10;0.10;;;;;;;17.48;95.89;99591.53;5113767;28;20107;-46
2023/09/21 04:54:38;;;;;;;0.10;0.10;;;;;;;17.50;96.71;99594.97;5114553;28;20106;-46
2023/09/21 04:57:04;;;;;;;0.00;0.00;;;;;;;17.54;96.51;99599.25;5114216;28;20155;-44
2023/09/21 04:59:29;;;;;;;0.10;0.10;;;;;;;17.54;96.24;99597.47;5113233;28;20031;-44
2023/09/21 05:01:55;;;;;;;0.10;0.10;;;;;;;17.53;96.64;99600.13;5114660;28;20087;-46
2023/09/21 05:04:21;;;;;;;0.00;0.00;;;;;;;17.54;95.96;99591.44;5114265;28;20032;-42
2023/09/21 05:06:46;;;;;;;0.10;0.10;;;;;;;17.62;96.00;99594.72;5113503;28;20019;-44
2023/09/21 05:09:12;;;;;;;0.10;0.10;;;;;;;17.64;96.75;99592.97;5114119;28;20035;-43
2023/09/21 05:11:40;;;;;;;0.10;0.10;;;;;;;17.62;96.97;99586.91;5114254;28;20023;-44
2023/09/21 05:14:06;;;;;;;0.03;0.03;;;;;;;17.65;96.37;99588.59;5113195;28;20487;-46
2023/09/21 05:16:32;;;;;;;0.00;0.00;;;;;;;17.65;96.88;99589.47;5113892;28;20042;-42
2023/09/21 05:18:57;;;;;;;0.00;0.00;;;;;;;17.69;96.93;99580.72;5113088;28;20031;-42
2023/09/21 05:21:23;;;;;;;0.10;0.10;;;;;;;17.70;96.97;99573.72;5113064;28;20490;-45
2023/09/21 05:23:48;;;;;;;0.10;0.10;;;;;;;17.77;95.96;99570.97;5113925;28;20019;-42
2023/09/21 05:26:14;;;;;;;0.10;0.10;;;;;;;17.82;96.20;99581.31;5112889;28;20027;-45
2023/09/21 05:28:39;;;;;;;0.00;0.00;;;;;;;17.88;95.20;99575.97;5113840;28;20027;-45
2023/09/21 05:31:04;;;;;;;0.00;0.00;;;;;;;17.91;95.20;99578.50;5114047;28;20030;-42
2023/09/21 05:33:30;;;;;;;0.08;0.08;;;;;;;17.92;95.58;99574.13;5112629;28;20095;-45
2023/09/21 05:35:56;;;;;;;0.08;0.08;;;;;;;18.00;94.71;99580.09;5113732;28;20416;-43
2023/09/21 05:38:22;;;;;;;0.10;0.10;;;;;;;18.05;94.55;99578.25;5113263;28;20485;-45
2023/09/21 05:40:47;;;;;;;0.08;0.08;;;;;;;18.07;94.16;99573.84;5112839;28;20143;-44
2023/09/21 05:43:13;;;;;;;0.10;0.10;;;;;;;18.07;94.65;99573.84;5113265;28;20479;-44
2023/09/21 05:45:38;;;;;;;0.05;0.05;;;;;;;18.10;94.52;99576.41;5113733;28;20055;-46
2023/09/21 05:48:07;;;;;;;0.10;0.10;;;;;;;18.15;94.32;99578.03;5112930;28;20024;-45
2023/09/21 05:50:32;;;;;;;0.10;0.10;;;;;;;18.18;94.02;99583.19;5113373;28;20028;-46
2023/09/21 05:52:59;;;;;;;0.10;0.10;;;;;;;18.17;93.81;99578.88;5113504;28;20027;-43
2023/09/21 05:55:26;;;;;;;0.00;0.00;;;;;;;18.18;93.85;99572.75;5112262;28;20386;-47
2023/09/21 05:57:51;;;;;;;0.00;0.00;;;;;;;18.14;95.11;99578.94;5113406;28;20023;-46
2023/09/21 06:00:18;;;;;;;0.10;0.10;;;;;;;18.09;95.23;99574.69;5113236;28;20104;-43
2023/09/21 06:02:44;;;;;;;0.10;0.10;;;;;;;18.06;95.76;99571.28;5112673;28;20031;-44
2023/09/21 06:05:10;;;;;;;0.00;0.00;;;;;;;17.96;97.71;99575.84;5113394;28;20024;-47
2023/09/21 06:07:35;;;;;;;0.10;0.10;;;;;;;17.85;98.98;99575.19;5113097;28;20032;-46
2023/09/21 06:10:01;;;;;;;0.10;0.10;;;;;;;17.76;100.00;99577.06;5112424;28;20028;-44
2023/09/21 06:12:27;;;;;;;0.10;0.10;;;;;;;17.69;100.00;99578.09;5113176;28;20030;-46
2023/09/21 06:14:54;;;;;;;0.10;0.10;;;;;;;17.58;100.00;99582.66;5113550;28;20041;-47
2023/09/21 06:17:19;;;;;;;0.00;0.00;;;;;;;17.51;100.00;99583.69;5112299;28;20016;-47
2023/09/21 06:19:44;;;;;;;0.10;0.10;;;;;;;17.42;100.00;99589.91;5113294;28;20026;-46
2023/09/21 06:22:11;;;;;;;0.10;0.10;;;;;;;17.26;100.00;99594.53;5113310;28;20505;-43
2023/09/21 06:24:39;;;;;;;0.10;0.10;;;;;;;17.18;100.00;99586.00;5112081;28;20118;-46
2023/09/21 06:27:05;;;;;;;0.10;0.10;;;;;;;17.06;100.00;99589.69;5113074;28;20496;-47
2023/09/21 06:29:30;;;;;;;0.00;0.00;;;;;;;16.95;100.00;99590.72;5112726;28;20020;-47
2023/09/21 06:31:56;;;;;;;0.10;0.10;;;;;;;16.84;100.00;99590.03;5117420;28;20032;-46
2023/09/21 06:34:24;;;;;;;0.10;0.10;;;;;;;16.75;100.00;99583.22;5117040;28;20019;-43
2023/09/21 06:36:52;;;;;;;0.10;0.10;;;;;;;16.66;100.00;99585.97;5116274;28;20559;-46
2023/09/21 06:39:18;;;;;;;0.10;0.10;;;;;;;16.63;100.00;99591.22;5116826;28;20035;-45
2023/09/21 06:41:45;;;;;;;0.10;0.10;;;;;;;16.60;100.00;99593.84;5117133;28;20538;-45
2023/09/21 06:44:10;;;;;;;0.10;0.10;;;;;;;16.57;100.00;99591.31;5116580;28;20095;-44
2023/09/21 06:46:36;;;;;;;0.00;0.00;;;;;;;16.56;100.00;99592.19;5116756;28;20114;-44
2023/09/21 06:49:03;;;;;;;0.10;0.10;;;;;;;16.53;100.00;99600.06;5117075;28;20163;-45
2023/09/21 06:51:28;;;;;;;0.10;0.10;;;;;;;16.50;100.00;99584.47;5115787;28;20067;-44
2023/09/21 06:53:53;;;;;;;0.10;0.10;;;;;;;16.51;100.00;99596.59;5116905;28;20071;-42
2023/09/21 06:56:21;;;;;;;0.00;0.00;;;;;;;16.48;100.00;99602.72;5116290;28;20054;-42
2023/09/21 06:58:47;;;;;;;0.00;0.00;;;;;;;16.47;100.00;99606.19;5116058;28;20110;-43
2023/09/21 07:01:12;;;;;;;0.10;0.10;;;;;;;16.41;100.00;99614.94;5116519;28;20074;-41
2023/09/21 07:03:37;;;;;;;0.10;0.10;;;;;;;16.36;100.00;99613.28;5116770;28;20019;-44
2023/09/21 07:06:03;;;;;;;0.10;0.10;;;;;;;16.24;100.00;99614.31;5115968;28;20031;-43
2023/09/21 07:08:28;;;;;;;0.10;0.10;;;;;;;16.15;100.00;99611.84;5116321;28;20512;-41
2023/09/21 07:10:53;;;;;;;0.10;0.10;;;;;;;16.03;100.00;99613.72;5116693;28;20408;-45
2023/09/21 07:13:20;;;;;;;0.10;0.10;;;;;;;15.98;100.00;99619.84;5115515;28;20020;-45
2023/09/21 07:15:47;;;;;;;0.10;0.10;;;;;;;15.91;100.00;99616.47;5116492;28;20026;-45
2023/09/21 07:18:13;;;;;;;0.10;0.10;;;;;;;15.87;100.00;99614.78;5116285;28;20027;-46
2023/09/21 07:20:38;;;;;;;0.10;0.10;;;;;;;15.85;100.00;99608.75;5115472;28;20027;-45
2023/09/21 07:23:03;;;;;;;0.10;0.10;;;;;;;15.83;100.00;99607.91;5116214;28;20063;-46
2023/09/21 07:25:29;;;;;;;0.10;0.10;;;;;;;15.80;100.00;99603.56;5115904;28;20106;-46
2023/09/21 07:27:55;;;;;;;0.10;0.10;;;;;;;15.82;100.00;99595.81;5115587;28;20015;-46
2023/09/21 07:30:31;;;;;;;0.10;0.10;;;;;;;15.84;100.00;99604.44;5115996;28;20066;-46
2023/09/21 07:32:56;;;;;;;0.10;0.10;;;;;;;15.81;100.00;99594.94;5115667;28;20023;-44
2023/09/21 07:35:22;;;;;;;0.00;0.00;;;;;;;15.79;100.00;99601.88;5115994;28;20022;-47
2023/09/21 07:37:51;;;;;;;0.10;0.10;;;;;;;15.77;100.00;99601.00;5115882;28;20155;-46
2023/09/21 07:40:18;;;;;;;0.10;0.10;;;;;;;15.75;100.00;99601.03;5115021;28;20360;-45
2023/09/21 07:42:44;;;;;;;0.10;0.10;;;;;;;15.74;100.00;99599.31;5115135;28;20020;-43
2023/09/21 07:45:09;;;;;;;0.10;0.10;;;;;;;15.75;100.00;99606.25;5115837;28;20424;-45
2023/09/21 07:47:35;;;;;;;0.00;0.00;;;;;;;15.76;100.00;99617.47;5114774;28;20068;-42
2023/09/21 07:50:01;;;;;;;0.10;0.10;;;;;;;15.76;100.00;99620.94;5115771;28;20024;-45
2023/09/21 07:52:29;;;;;;;0.10;0.10;;;;;;;15.76;100.00;99613.16;5115324;28;20116;-46
2023/09/21 07:54:54;;;;;;;0.10;0.10;;;;;;;15.75;100.00;99605.34;5115082;28;20038;-44
2023/09/21 07:57:20;;;;;;;0.10;0.10;;;;;;;15.75;100.00;99614.03;5115183;28;20044;-45
2023/09/21 07:59:45;;;;;;;0.10;0.10;;;;;;;15.74;100.00;99616.66;5115801;28;20027;-45
2023/09/21 08:02:12;;;;;;;0.10;0.10;;;;;;;15.77;100.00;99620.03;5114685;28;20019;-44
2023/09/21 08:04:40;;;;;;;0.10;0.10;;;;;;;15.76;100.00;99618.34;5115618;28;20157;-43
2023/09/21 08:07:05;;;;;;;0.10;0.10;;;;;;;15.78;100.00;99623.53;5115354;28;20538;-43
2023/09/21 08:09:32;;;;;;;0.10;0.10;;;;;;;15.79;100.00;99628.69;5114519;28;20028;-44
2023/09/21 08:11:57;;;;;;;0.10;0.10;;;;;;;15.80;100.00;99622.63;5115547;28;20106;-46
2023/09/21 08:14:23;;;;;;;0.10;0.10;;;;;;;15.82;100.00;99634.78;5114934;28;20162;-44
2023/09/21 08:16:51;;;;;;;0.10;0.10;;;;;;;15.84;100.00;99644.28;5114593;28;20470;-47
2023/09/21 08:19:16;;;;;;;0.10;0.10;;;;;;;15.80;100.00;99650.31;5114978;28;20089;-45
2023/09/21 08:21:41;;;;;;;0.10;0.10;;;;;;;15.76;100.00;99648.66;5115154;28;20473;-45
2023/09/21 08:24:09;;;;;;;0.10;0.10;;;;;;;15.72;100.00;99641.78;5114279;28;20404;-46
2023/09/21 08:26:35;;;;;;;0.10;0.10;;;;;;;15.69;100.00;99641.81;5114927;28;20028;-44
2023/09/21 08:29:00;;;;;;;0.10;0.10;;;;;;;15.70;100.00;99652.19;5114333;28;20102;-46
2023/09/21 08:31:25;;;;;;;0.10;0.10;;;;;;;15.69;100.00;99653.06;5114753;28;20102;-46
2023/09/21 08:33:51;;;;;;;0.10;0.10;;;;;;;15.69;100.00;99666.03;5114978;28;20016;-47
2023/09/21 08:36:16;;;;;;;0.10;0.10;;;;;;;15.69;100.00;99671.22;5113699;28;20550;-45
2023/09/21 08:38:42;;;;;;;0.10;0.10;;;;;;;15.66;100.00;99679.06;5114951;28;20030;-42
2023/09/21 08:41:08;;;;;;;0.10;0.10;;;;;;;15.59;100.00;99682.59;5114825;28;20024;-45
2023/09/21 08:43:34;;;;;;;0.10;0.10;;;;;;;15.54;100.00;99676.59;5113763;28;20034;-46
2023/09/21 08:46:00;;;;;;;0.10;0.10;;;;;;;15.51;100.00;99684.41;5114670;28;20120;-45
2023/09/21 08:48:29;;;;;;;0.10;0.10;;;;;;;15.49;100.00;99681.81;5114495;28;20065;-43
2023/09/21 08:50:55;;;;;;;0.10;0.10;;;;;;;15.45;100.00;99693.97;5113808;28;20420;-45
2023/09/21 08:53:22;;;;;;;0.10;0.10;;;;;;;15.44;100.00;99697.44;5114468;28;20475;-45
2023/09/21 08:55:49;;;;;;;0.10;0.10;;;;;;;15.43;100.00;99703.50;5114525;28;20042;-46
2023/09/21 08:58:23;;;;;;;0.10;0.10;;;;;;;15.36;100.00;99707.03;5113181;28;20437;-43
2023/09/21 09:00:51;;;;;;;0.00;0.00;;;;;;;15.35;100.00;99710.50;5114713;28;20047;-45
2023/09/21 09:03:19;;;;;;;0.05;0.05;;;;;;;15.31;100.00;99708.78;5113981;28;20488;-43
2023/09/21 09:05:46;;;;;;;0.10;0.10;;;;;;;15.30;100.00;99705.34;5113695;28;20054;-45
2023/09/21 09:08:12;;;;;;;0.10;0.10;;;;;;;15.19;100.00;99699.38;5114420;28;20051;-46
2023/09/21 09:10:41;;;;;;;0.10;0.10;;;;;;;15.08;100.00;99696.88;5114414;28;20464;-46
2023/09/21 09:13:07;;;;;;;0.10;0.10;;;;;;;14.99;100.00;99694.34;5113403;28;20028;-45
2023/09/21 09:15:34;;;;;;;0.00;0.00;;;;;;;14.95;100.00;99695.22;5113889;28;20092;-43
2023/09/21 09:18:07;;;;;;;0.10;0.10;;;;;;;14.90;100.00;99702.16;5114004;28;20027;-46
2023/09/21 09:20:36;;;;;;;0.10;0.10;;;;;;;14.83;100.00;99703.94;5113277;28;20265;-46
2023/09/21 09:23:02;;;;;;;0.10;0.10;;;;;;;14.82;100.00;99704.81;5114134;28;20108;-44
2023/09/21 09:25:28;;;;;;;0.10;0.10;;;;;;;14.79;100.00;99704.84;5112951;28;20024;-42
2023/09/21 09:27:54;;;;;;;0.10;0.10;;;;;;;14.82;100.00;99695.31;5113991;28;20471;-44
2023/09/21 09:30:23;;;;;;;0.10;0.10;;;;;;;14.84;100.00;99694.44;5113455;28;20379;-47
2023/09/21 09:32:50;;;;;;;0.10;0.10;;;;;;;14.88;100.00;99678.84;5113326;28;20020;-44
2023/09/21 09:35:17;;;;;;;0.10;0.10;;;;;;;14.91;100.00;99689.22;5113725;28;20023;-46
2023/09/21 09:37:44;;;;;;;0.10;0.10;;;;;;;14.88;100.00;99678.00;5113830;28;20023;-45
2023/09/21 09:40:13;;;;;;;0.10;0.10;;;;;;;14.90;100.00;99681.41;5113064;28;20147;-45
2023/09/21 09:42:41;;;;;;;0.10;0.10;;;;;;;14.94;100.00;99667.56;5113696;28;20482;-42
2023/09/21 09:45:16;;;;;;;0.10;0.10;;;;;;;15.02;100.00;99672.72;5113962;28;20042;-47
2023/09/21 09:47:56;;;;;;;0.10;0.10;;;;;;;15.10;100.00;99678.69;5113047;28;20047;-44
2023/09/21 09:50:24;;;;;;;0.10;0.10;;;;;;;15.24;100.00;99682.03;5113301;28;20016;-46
2023/09/21 09:53:17;;;;;;;0.10;0.10;;;;;;;15.36;100.00;99675.00;5113501;28;20024;-45
2023/09/21 09:55:45;;;;;;;0.10;0.10;;;;;;;15.45;100.00;99677.53;5108761;28;20127;-47
2023/09/21 09:58:10;;;;;;;0.10;0.10;;;;;;;15.54;100.00;99684.38;5113574;28;20027;-45
2023/09/21 10:00:37;;;;;;;0.00;0.00;;;;;;;15.59;100.00;99674.81;5112494;28;20042;-45
2023/09/21 10:03:04;;;;;;;0.10;0.10;;;;;;;15.56;100.00;99672.25;5113455;28;20016;-46
2023/09/21 10:05:30;;;;;;;0.10;0.10;;;;;;;15.66;100.00;99666.09;5112620;28;20107;-46
2023/09/21 10:08:01;;;;;;;0.00;0.00;;;;;;;15.63;100.00;99663.50;5112548;28;20020;-47
2023/09/21 10:10:33;;;;;;;0.10;0.10;;;;;;;15.66;100.00;99660.00;5112884;28;20493;-46
2023/09/21 10:12:59;;;;;;;0.10;0.10;;;;;;;15.65;100.00;99661.75;5113512;28;20161;-46
2023/09/21 10:15:24;;;;;;;0.10;0.10;;;;;;;15.75;100.00;99646.91;5112282;28;20542;-46
2023/09/21 10:17:56;;;;;;;0.05;0.05;;;;;;;15.75;100.00;99645.19;5113192;28;20073;-45
2023/09/21 10:20:25;;;;;;;0.10;0.10;;;;;;;15.87;100.00;99651.16;5112834;28;20019;-46
2023/09/21 10:22:55;;;;;;;0.10;0.10;;;;;;;15.93;100.00;99646.75;5112504;28;20028;-46
2023/09/21 10:25:38;;;;;;;0.10;0.10;;;;;;;16.01;100.00;99644.06;5113134;28;20098;-45
2023/09/21 10:28:28;;;;;;;0.10;0.10;;;;;;;16.11;100.00;99656.06;5113324;28;20015;-47
2023/09/21 10:30:55;;;;;;;0.10;0.10;;;;;;;16.18;100.00;99646.47;5113103;28;20036;-45
2023/09/21 10:33:22;;;;;;;0.10;0.10;;;;;;;16.21;100.00;99650.75;5112834;28;20596;-44
2023/09/21 10:35:49;;;;;;;0.10;0.10;;;;;;;16.35;100.00;99642.78;5112506;28;20020;-43
2023/09/21 10:38:17;;;;;;;0.10;0.10;;;;;;;16.48;100.00;99643.47;5112730;28;20067;-45
2023/09/21 10:40:43;;;;;;;0.10;0.10;;;;;;;16.45;100.00;99644.38;5113079;28;20020;-46
2023/09/21 10:43:42;;;;;;;0.10;0.10;;;;;;;16.49;100.00;99639.97;5112159;28;20019;-46
2023/09/21 10:46:19;;;;;;;0.00;0.00;;;;;;;16.42;100.00;99629.69;5113225;28;20028;-43
2023/09/21 10:48:57;;;;;;;0.10;0.10;;;;;;;16.42;100.00;99627.06;5113118;28;20036;-44
2023/09/21 10:51:23;;;;;;;0.00;0.00;;;;;;;16.45;100.00;99627.03;5111767;28;20471;-45
2023/09/21 10:53:49;;;;;;;0.10;0.10;;;;;;;16.50;100.00;99629.56;5113165;28;20072;-44
2023/09/21 10:56:14;;;;;;;0.10;0.10;;;;;;;16.55;100.00;99625.16;5112404;28;20043;-45
2023/09/21 10:58:40;;;;;;;0.10;0.10;;;;;;;16.60;100.00;99617.28;5111936;28;20036;-46
2023/09/21 11:01:06;;;;;;;0.10;0.10;;;;;;;16.64;100.00;99613.72;5112957;28;20107;-46
2023/09/21 11:03:32;;;;;;;0.10;0.10;;;;;;;16.62;100.00;99608.56;5112772;28;20516;-45
2023/09/21 11:05:57;;;;;;;0.00;0.00;;;;;;;16.66;100.00;99604.19;5112035;28;20035;-46
2023/09/21 11:08:25;;;;;;;0.10;0.10;;;;;;;16.71;100.00;99586.75;5112467;28;20036;-46
2023/09/21 11:10:51;;;;;;;0.10;0.10;;;;;;;16.78;100.00;99588.38;5112115;28;20026;-46
2023/09/21 11:13:17;;;;;;;0.10;0.10;;;;;;;16.87;100.00;99578.69;5112622;28;20024;-45
2023/09/21 11:15:43;;;;;;;0.10;0.10;;;;;;;16.93;100.00;99576.03;5112781;28;20026;-46
2023/09/21 11:18:09;;;;;;;0.10;0.10;;;;;;;17.00;100.00;99577.63;5115281;28;20027;-45
2023/09/21 11:20:35;;;;;;;0.10;0.10;;;;;;;17.06;100.00;99576.69;5116228;28;20031;-44
2023/09/21 11:23:02;;;;;;;0.00;0.00;;;;;;;17.10;100.00;99568.78;5116166;28;20099;-44
2023/09/21 11:25:27;;;;;;;0.10;0.10;;;;;;;17.13;100.00;99574.81;5115481;28;20037;-46
2023/09/21 11:27:53;;;;;;;0.10;0.10;;;;;;;17.19;100.00;99574.72;5116440;28;20019;-44